Time;durP1;ratioP1;P1;durP2;ratioP2;P2;SDS_P1;SDS_P2;PMS_P1;PMS_P2;Temp;Humidity;BMP_temperature;BMP_pressure;BME280_temperature;BME280_humidity;BME280_pressure;Samples;Min_cycle;Max_cycle;Signal;HPM_P1;HPM_P2
2021/10/31 00:01:16;;;;;;;;;;;9.90;91.30;;;;;;5026315;28;20026;-71
2021/10/31 00:03:42;;;;;;;22.77;12.77;;;9.90;91.30;;;;;;5024266;28;19948;-71
2021/10/31 00:06:08;;;;;;;19.63;12.07;;;9.90;91.50;;;;;;5025857;28;20018;-71
2021/10/31 00:08:34;;;;;;;20.15;11.48;;;9.90;91.80;;;;;;5024766;28;20022;-71
2021/10/31 00:11:01;;;;;;;21.85;12.00;;;9.80;91.30;;;;;;5025719;28;20026;-71
2021/10/31 00:13:27;;;;;;;19.42;12.10;;;9.90;91.30;;;;;;5025321;28;20026;-71
2021/10/31 00:15:53;;;;;;;21.43;12.40;;;9.90;91.40;;;;;;5025667;28;20029;-71
2021/10/31 00:18:19;;;;;;;21.00;12.25;;;9.90;91.70;;;;;;5023796;28;20085;-71
2021/10/31 00:20:44;;;;;;;17.92;10.60;;;10.00;90.90;;;;;;5025580;28;20029;-71
2021/10/31 00:23:10;;;;;;;19.35;12.30;;;9.90;91.20;;;;;;5025290;28;20260;-71
2021/10/31 00:25:36;;;;;;;18.90;11.60;;;9.90;91.90;;;;;;5025428;28;20032;-71
2021/10/31 00:28:02;;;;;;;17.48;11.00;;;9.80;91.70;;;;;;5025340;28;20040;-71
2021/10/31 00:30:28;;;;;;;21.23;11.83;;;9.80;91.60;;;;;;5025465;28;20337;-71
2021/10/31 00:32:54;;;;;;;18.95;10.77;;;9.80;91.60;;;;;;5024849;28;20017;-71
2021/10/31 00:35:20;;;;;;;19.50;11.77;;;9.80;91.70;;;;;;5025205;28;20048;-71
2021/10/31 00:37:46;;;;;;;21.25;11.77;;;9.80;91.80;;;;;;5025277;28;20029;-71
2021/10/31 00:40:12;;;;;;;20.80;12.03;;;9.80;91.40;;;;;;5025144;28;20029;-71
2021/10/31 00:42:38;;;;;;;21.65;12.05;;;9.90;91.00;;;;;;5025205;28;20033;-71
2021/10/31 00:45:05;;;;;;;23.50;13.10;;;9.80;91.30;;;;;;5040326;28;20093;-71
2021/10/31 00:47:31;;;;;;;;;;;9.80;91.50;;;;;;5040696;28;20026;-71
2021/10/31 00:49:57;;;;;;;19.55;11.35;;;9.90;91.20;;;;;;5024881;28;20111;-71
2021/10/31 00:52:23;;;;;;;21.15;11.98;;;9.90;91.40;;;;;;5023893;28;20021;-71
2021/10/31 00:54:49;;;;;;;23.60;12.82;;;9.90;91.80;;;;;;5056438;23;20044;-70
2021/10/31 00:57:15;;;;;;;23.20;13.67;;;9.90;91.10;;;;;;5080195;28;20032;-70
2021/10/31 00:59:40;;;;;;;20.73;12.37;;;9.90;91.30;;;;;;5080265;28;20189;-70
2021/10/31 01:02:11;;;;;;;22.80;12.57;;;9.90;92.00;;;;;;5080232;28;20032;-71
2021/10/31 01:04:39;;;;;;;24.17;13.50;;;10.00;92.20;;;;;;5079601;28;20017;-70
2021/10/31 01:07:48;;;;;;;22.33;12.77;;;10.00;92.00;;;;;;5047084;28;20028;-70
2021/10/31 01:10:35;;;;;;;;;;;10.00;90.90;;;;;;5051490;28;20059;-71
2021/10/31 01:13:20;;;;;;;22.40;12.25;;;10.00;91.10;;;;;;5064112;28;20003;-70
2021/10/31 01:16:22;;;;;;;22.75;12.95;;;10.10;90.60;;;;;;5064409;28;20036;-70
2021/10/31 01:19:06;;;;;;;23.23;12.93;;;10.10;91.00;;;;;;5053697;28;20009;-70
2021/10/31 01:21:40;;;;;;;22.00;12.55;;;10.10;90.60;;;;;;5044331;28;20198;-71
2021/10/31 01:24:45;;;;;;;21.50;12.30;;;10.10;90.90;;;;;;5042892;28;20013;-70
2021/10/31 01:27:45;;;;;;;22.52;12.43;;;10.10;91.30;;;;;;5043042;28;20067;-70
2021/10/31 01:30:46;;;;;;;17.77;10.82;;;10.10;90.80;;;;;;5044160;28;20312;-70
2021/10/31 01:33:50;;;;;;;22.13;12.10;;;10.10;90.80;;;;;;5042587;28;20021;-71
2021/10/31 01:36:44;;;;;;;23.45;12.30;;;10.10;90.70;;;;;;5046299;28;20033;-71
2021/10/31 01:39:38;;;;;;;21.05;12.18;;;10.10;90.90;;;;;;5016434;28;20037;-71
2021/10/31 01:42:27;;;;;;;20.63;11.90;;;10.10;91.60;;;;;;5042822;28;20462;-71
2021/10/31 01:45:19;;;;;;;24.75;13.13;;;10.10;91.90;;;;;;5042205;28;20036;-71
2021/10/31 01:48:02;;;;;;;24.65;12.45;;;10.10;91.10;;;;;;5042705;28;20096;-71
2021/10/31 01:50:39;;;;;;;20.67;11.80;;;10.10;91.10;;;;;;5042468;28;20092;-70
2021/10/31 01:53:14;;;;;;;18.67;10.47;;;10.10;91.80;;;;;;5042427;28;20224;-70
2021/10/31 01:55:50;;;;;;;21.85;13.18;;;10.20;90.90;;;;;;5042506;28;20083;-71
2021/10/31 01:58:17;;;;;;;19.65;11.45;;;10.20;91.00;;;;;;5042466;28;20035;-71
2021/10/31 02:00:43;;;;;;;19.65;11.38;;;10.20;90.70;;;;;;5058970;28;20059;-70
2021/10/31 02:03:09;;;;;;;19.05;10.95;;;10.20;91.00;;;;;;5042026;28;20039;-70
2021/10/31 02:05:37;;;;;;;20.88;11.43;;;10.20;90.90;;;;;;5058924;28;20328;-70
2021/10/31 02:08:06;;;;;;;20.88;11.80;;;10.20;91.00;;;;;;5058619;28;20092;-70
2021/10/31 02:10:32;;;;;;;21.50;12.25;;;10.20;91.10;;;;;;5042364;28;20236;-71
2021/10/31 02:12:58;;;;;;;22.70;12.83;;;10.20;91.00;;;;;;5025478;28;20025;-71
2021/10/31 02:15:24;;;;;;;18.70;11.32;;;10.20;91.70;;;;;;5059103;28;20044;-70
2021/10/31 02:17:53;;;;;;;20.60;11.93;;;10.10;91.70;;;;;;5042167;28;20036;-71
2021/10/31 02:20:19;;;;;;;18.67;11.52;;;10.20;91.70;;;;;;5057099;28;20346;-71
2021/10/31 02:23:01;;;;;;;19.70;12.57;;;10.20;91.10;;;;;;5042099;28;20018;-71
2021/10/31 02:25:27;;;;;;;20.63;11.25;;;10.20;90.90;;;;;;5057190;28;20024;-70
2021/10/31 02:27:53;;;;;;;17.53;11.00;;;10.20;91.30;;;;;;5042491;28;20081;-70
2021/10/31 02:30:19;;;;;;;19.35;11.00;;;10.20;92.00;;;;;;5042159;28;20017;-70
2021/10/31 02:32:44;;;;;;;19.10;10.95;;;10.30;91.10;;;;;;5042995;28;20070;-70
2021/10/31 02:35:11;;;;;;;16.30;10.83;;;10.20;91.00;;;;;;5041362;28;20021;-70
2021/10/31 02:37:41;;;;;;;;;;;10.30;90.90;;;;;;5042269;28;20029;-70
2021/10/31 02:40:10;;;;;;;18.77;10.77;;;10.30;90.40;;;;;;5041851;28;20146;-70
2021/10/31 02:42:36;;;;;;;20.35;10.75;;;10.30;90.90;;;;;;5041712;28;20025;-71
2021/10/31 02:45:03;;;;;;;19.30;10.63;;;10.30;90.90;;;;;;5042478;28;20055;-70
2021/10/31 02:47:56;;;;;;;19.27;11.07;;;10.20;91.00;;;;;;5041594;28;20344;-70
2021/10/31 02:50:43;;;;;;;20.60;10.90;;;10.20;91.00;;;;;;5028235;28;20028;-71
2021/10/31 02:53:25;;;;;;;15.85;9.60;;;10.20;91.30;;;;;;5041408;28;20018;-71
2021/10/31 02:56:22;;;;;;;17.13;10.20;;;10.20;91.10;;;;;;5025795;28;20022;-70
2021/10/31 02:59:00;;;;;;;18.10;9.45;;;10.30;90.40;;;;;;5041481;28;20427;-69
2021/10/31 03:01:26;;;;;;;15.52;9.32;;;10.30;90.10;;;;;;5041599;28;20180;-70
2021/10/31 03:03:54;;;;;;;18.27;9.73;;;10.30;90.20;;;;;;5057617;28;20089;-70
2021/10/31 03:06:20;;;;;;;16.08;9.48;;;10.30;90.30;;;;;;5041483;28;20031;-70
2021/10/31 03:08:46;;;;;;;15.90;9.35;;;10.30;90.70;;;;;;5057946;28;20344;-70
2021/10/31 03:11:12;;;;;;;15.82;9.93;;;10.20;90.90;;;;;;5042434;28;20036;-71
2021/10/31 03:13:38;;;;;;;15.63;9.23;;;10.30;90.40;;;;;;5057735;28;20017;-70
2021/10/31 03:16:06;;;;;;;16.55;9.32;;;10.30;90.10;;;;;;5057922;28;20029;-70
2021/10/31 03:18:31;;;;;;;15.38;9.07;;;10.30;90.00;;;;;;5057747;28;20351;-70
2021/10/31 03:20:57;;;;;;;15.17;9.80;;;10.40;90.50;;;;;;5024505;28;20084;-71
2021/10/31 03:23:23;;;;;;;18.08;9.60;;;10.40;90.50;;;;;;5042230;28;20045;-70
2021/10/31 03:25:49;;;;;;;16.30;9.52;;;10.30;90.80;;;;;;5042275;28;20085;-71
2021/10/31 03:28:15;;;;;;;17.67;9.40;;;10.20;91.10;;;;;;5042396;28;20103;-70
2021/10/31 03:30:40;;;;;;;15.32;8.73;;;10.30;90.50;;;;;;5057948;28;20025;-70
2021/10/31 03:33:06;;;;;;;15.77;8.50;;;10.30;90.30;;;;;;5042026;28;20021;-70
2021/10/31 03:35:32;;;;;;;16.35;9.50;;;10.20;90.30;;;;;;5057528;28;20360;-70
2021/10/31 03:37:58;;;;;;;16.58;9.30;;;10.20;90.30;;;;;;5042382;28;20331;-70
2021/10/31 03:40:24;;;;;;;17.27;9.68;;;10.10;90.30;;;;;;5042195;28;20032;-70
2021/10/31 03:42:50;;;;;;;15.55;8.98;;;10.10;90.40;;;;;;5042269;28;20088;-70
2021/10/31 03:45:16;;;;;;;15.63;9.15;;;10.10;90.30;;;;;;5057459;28;20029;-71
2021/10/31 03:47:46;;;;;;;14.45;8.77;;;10.10;90.40;;;;;;5057625;28;20224;-70
2021/10/31 03:50:14;;;;;;;15.30;9.07;;;10.00;91.20;;;;;;5040941;28;20022;-70
2021/10/31 03:52:40;;;;;;;14.95;9.77;;;10.00;90.90;;;;;;5040920;28;20216;-71
2021/10/31 03:55:07;;;;;;;15.00;8.80;;;10.00;90.60;;;;;;5057257;28;20093;-71
2021/10/31 03:57:35;;;;;;;14.23;7.80;;;10.00;90.70;;;;;;5057467;28;20033;-70
2021/10/31 04:00:06;;;;;;;16.65;9.57;;;10.00;90.50;;;;;;5042122;28;20025;-71
2021/10/31 04:02:32;;;;;;;18.17;8.75;;;9.90;90.90;;;;;;5040956;28;20271;-70
2021/10/31 04:04:58;;;;;;;16.93;9.70;;;9.90;90.80;;;;;;5057047;28;20025;-70
2021/10/31 04:07:24;;;;;;;15.55;8.93;;;9.80;91.10;;;;;;5043301;28;20029;-70
2021/10/31 04:09:49;;;;;;;15.15;8.75;;;9.80;91.10;;;;;;5061168;28;20041;-70
2021/10/31 04:12:15;;;;;;;16.70;9.23;;;9.70;91.20;;;;;;5044521;28;20028;-69
2021/10/31 04:14:41;;;;;;;13.98;8.50;;;9.70;91.20;;;;;;5060769;28;20017;-70
2021/10/31 04:17:07;;;;;;;17.50;9.95;;;9.70;91.50;;;;;;5045566;28;20018;-70
2021/10/31 04:19:33;;;;;;;15.02;9.43;;;9.60;91.60;;;;;;5059714;28;20021;-71
2021/10/31 04:21:58;;;;;;;18.95;8.55;;;9.60;91.90;;;;;;5060886;28;20017;-70
2021/10/31 04:24:24;;;;;;;16.90;9.40;;;9.50;92.60;;;;;;5044979;28;20073;-70
2021/10/31 04:26:51;;;;;;;17.93;9.00;;;9.50;92.50;;;;;;5043773;28;20021;-71
2021/10/31 04:29:17;;;;;;;15.82;8.48;;;9.50;92.90;;;;;;5043973;28;20088;-70
2021/10/31 04:31:42;;;;;;;15.30;9.00;;;9.50;92.40;;;;;;5059598;28;20025;-70
2021/10/31 04:34:08;;;;;;;18.48;10.35;;;9.30;91.90;;;;;;5044862;28;20021;-70
2021/10/31 04:36:34;;;;;;;16.63;8.75;;;9.30;91.90;;;;;;5045111;28;20026;-70
2021/10/31 04:39:00;;;;;;;13.13;8.23;;;9.30;91.90;;;;;;5060697;28;20328;-70
2021/10/31 04:41:29;;;;;;;17.00;9.40;;;9.30;92.10;;;;;;5060590;28;20022;-70
2021/10/31 04:43:54;;;;;;;15.48;9.00;;;9.30;92.20;;;;;;5059763;28;20259;-70
2021/10/31 04:46:20;;;;;;;15.40;9.00;;;9.30;92.60;;;;;;5060257;28;20025;-70
2021/10/31 04:48:46;;;;;;;15.35;9.27;;;9.20;92.40;;;;;;5044881;28;20276;-70
2021/10/31 04:51:12;;;;;;;15.38;9.05;;;9.20;92.70;;;;;;5060491;28;20017;-70
2021/10/31 04:53:38;;;;;;;13.30;8.00;;;9.20;92.40;;;;;;5044359;28;20271;-70
2021/10/31 04:56:04;;;;;;;15.83;8.50;;;9.10;92.40;;;;;;5060359;28;20325;-70
2021/10/31 04:58:30;;;;;;;15.05;8.80;;;9.10;92.50;;;;;;5044651;28;20401;-70
2021/10/31 05:00:55;;;;;;;17.50;9.13;;;9.00;92.50;;;;;;5044495;28;20044;-70
2021/10/31 05:03:21;;;;;;;20.70;9.93;;;9.00;92.60;;;;;;5044438;28;20091;-70
2021/10/31 05:05:47;;;;;;;18.35;9.07;;;9.00;92.70;;;;;;5043467;28;20093;-70
2021/10/31 05:08:13;;;;;;;16.42;9.25;;;8.90;92.80;;;;;;5044475;28;20092;-70
2021/10/31 05:10:39;;;;;;;15.70;8.88;;;8.90;93.00;;;;;;5043473;28;20324;-70
2021/10/31 05:13:05;;;;;;;18.55;9.93;;;8.90;92.70;;;;;;5059643;28;20025;-70
2021/10/31 05:15:31;;;;;;;19.88;10.63;;;8.90;92.70;;;;;;5043011;28;20025;-70
2021/10/31 05:17:57;;;;;;;16.80;9.77;;;8.90;92.70;;;;;;5043028;28;20025;-70
2021/10/31 05:20:23;;;;;;;16.52;8.98;;;8.90;92.60;;;;;;5044079;28;20023;-70
2021/10/31 05:22:48;;;;;;;17.05;9.70;;;8.90;92.70;;;;;;5043234;28;20025;-69
2021/10/31 05:25:14;;;;;;;17.80;9.30;;;8.90;92.80;;;;;;5043353;28;20029;-70
2021/10/31 05:27:40;;;;;;;16.13;9.73;;;8.90;93.20;;;;;;5044319;28;20163;-70
2021/10/31 05:30:09;;;;;;;18.67;9.77;;;8.80;93.20;;;;;;5043136;28;20021;-70
2021/10/31 05:32:36;;;;;;;15.32;9.30;;;8.80;93.20;;;;;;5042186;28;20106;-70
2021/10/31 05:35:04;;;;;;;15.60;9.30;;;8.80;92.80;;;;;;5042466;28;20197;-70
2021/10/31 05:37:45;;;;;;;15.88;9.40;;;8.80;92.90;;;;;;5042696;28;20025;-70
2021/10/31 05:40:16;;;;;;;16.50;9.07;;;8.70;93.00;;;;;;5043989;28;20541;-70
2021/10/31 05:42:42;;;;;;;15.35;8.75;;;8.70;93.00;;;;;;5042693;28;20033;-70
2021/10/31 05:45:10;;;;;;;18.42;9.73;;;8.70;93.00;;;;;;5059014;28;20017;-70
2021/10/31 05:47:37;;;;;;;;;;;8.70;93.20;;;;;;5043906;28;20029;-71
2021/10/31 05:50:08;;;;;;;17.10;8.30;;;8.70;93.30;;;;;;5059144;28;19905;-70
2021/10/31 05:52:34;;;;;;;16.00;9.75;;;8.70;93.40;;;;;;5042811;28;20290;-71
2021/10/31 05:55:00;;;;;;;18.77;9.13;;;8.60;93.50;;;;;;5058781;28;20336;-70
2021/10/31 05:57:27;;;;;;;14.57;9.23;;;8.60;93.50;;;;;;5059071;28;20040;-71
2021/10/31 05:59:53;;;;;;;16.15;8.88;;;8.60;93.60;;;;;;5042334;28;20320;-71
2021/10/31 06:02:19;;;;;;;18.95;9.82;;;8.60;93.80;;;;;;5058755;28;20029;-71
2021/10/31 06:04:46;;;;;;;20.88;10.70;;;8.60;93.60;;;;;;5041565;28;20049;-71
2021/10/31 06:07:12;;;;;;;16.00;9.13;;;8.60;93.70;;;;;;5041902;28;20324;-71
2021/10/31 06:09:39;;;;;;;19.92;10.68;;;8.60;93.60;;;;;;5058730;28;20029;-72
2021/10/31 06:12:07;;;;;;;17.27;9.48;;;8.50;93.70;;;;;;5042359;28;20022;-72
2021/10/31 06:14:34;;;;;;;18.20;10.63;;;8.50;93.60;;;;;;5058029;28;20029;-72
2021/10/31 06:17:02;;;;;;;18.50;9.95;;;8.50;93.60;;;;;;5058337;28;20316;-71
2021/10/31 06:19:28;;;;;;;17.88;10.73;;;8.50;93.60;;;;;;5058350;28;20018;-71
2021/10/31 06:21:54;;;;;;;16.73;9.27;;;8.50;93.60;;;;;;5042230;28;20085;-70
2021/10/31 06:24:19;;;;;;;18.98;10.15;;;8.50;93.60;;;;;;5042738;28;20033;-71
2021/10/31 06:26:45;;;;;;;18.92;10.38;;;8.50;93.50;;;;;;5043012;28;20029;-71
2021/10/31 06:29:13;;;;;;;19.10;10.35;;;8.50;93.60;;;;;;5042160;28;20028;-71
2021/10/31 06:31:39;;;;;;;17.95;9.57;;;8.40;93.60;;;;;;5041980;28;20021;-72
2021/10/31 06:34:05;;;;;;;18.48;10.00;;;8.50;93.40;;;;;;5041379;28;20028;-71
2021/10/31 06:36:31;;;;;;;16.83;9.20;;;8.40;93.40;;;;;;5041777;28;20017;-71
2021/10/31 06:38:57;;;;;;;16.58;9.82;;;8.40;93.50;;;;;;5043081;28;20202;-71
2021/10/31 06:41:23;;;;;;;18.75;10.25;;;8.40;93.60;;;;;;5041759;28;20055;-71
2021/10/31 06:43:49;;;;;;;19.13;10.68;;;8.50;93.80;;;;;;5041184;28;20107;-71
2021/10/31 06:46:15;;;;;;;17.15;9.40;;;8.50;93.80;;;;;;5042493;28;20332;-72
2021/10/31 06:48:40;;;;;;;18.65;10.13;;;8.50;93.80;;;;;;5042525;28;20068;-71
2021/10/31 06:51:06;;;;;;;18.70;9.23;;;8.70;93.60;;;;;;5042548;28;20021;-71
2021/10/31 06:53:32;;;;;;;19.50;9.68;;;8.70;93.80;;;;;;5057948;28;20024;-71
2021/10/31 06:55:58;;;;;;;16.85;9.10;;;8.80;93.40;;;;;;5055671;23;20049;-72
2021/10/31 06:58:24;;;;;;;17.08;10.60;;;8.80;93.30;;;;;;5049380;28;20057;-72
2021/10/31 07:00:50;;;;;;;18.63;10.40;;;8.80;93.30;;;;;;5011197;28;20030;-72
2021/10/31 07:03:16;;;;;;;19.27;10.23;;;8.90;93.30;;;;;;5005040;28;20037;-72
2021/10/31 07:05:42;;;;;;;18.50;10.18;;;8.90;93.50;;;;;;4992134;28;20252;-72
2021/10/31 07:08:08;;;;;;;16.35;10.38;;;9.00;93.60;;;;;;5002035;28;20078;-72
2021/10/31 07:10:33;;;;;;;18.05;10.73;;;9.00;93.30;;;;;;5002287;28;20090;-72
2021/10/31 07:12:59;;;;;;;20.95;10.35;;;9.10;93.20;;;;;;5002111;28;20086;-72
2021/10/31 07:15:25;;;;;;;16.17;9.95;;;9.20;93.40;;;;;;5001064;28;20420;-73
2021/10/31 07:17:52;;;;;;;19.33;10.77;;;9.30;92.80;;;;;;5001520;28;20026;-72
2021/10/31 07:20:18;;;;;;;17.10;9.80;;;9.40;92.70;;;;;;5001228;28;20034;-72
2021/10/31 07:22:44;;;;;;;17.37;10.00;;;9.40;92.30;;;;;;5001075;28;20206;-72
2021/10/31 07:25:11;;;;;;;17.10;10.47;;;9.60;91.80;;;;;;5002382;28;20085;-72
2021/10/31 07:27:37;;;;;;;20.45;10.10;;;9.60;91.80;;;;;;5001717;28;20094;-71
2021/10/31 07:30:05;;;;;;;16.63;9.57;;;9.70;91.50;;;;;;4996980;28;20041;-71
2021/10/31 07:32:31;;;;;;;17.48;10.15;;;9.80;91.20;;;;;;5002534;28;20507;-71
2021/10/31 07:34:56;;;;;;;19.52;11.18;;;9.90;91.00;;;;;;5001610;28;20023;-74
2021/10/31 07:37:22;;;;;;;19.05;10.30;;;9.90;91.00;;;;;;5002576;28;20050;-73
2021/10/31 07:39:51;;;;;;;18.30;10.43;;;10.00;90.60;;;;;;5002244;28;20265;-69
2021/10/31 07:42:17;;;;;;;19.63;11.60;;;10.00;90.80;;;;;;5004626;28;20044;-72
2021/10/31 07:44:46;;;;;;;18.97;11.20;;;10.00;90.90;;;;;;5002908;28;20019;-71
2021/10/31 07:47:12;;;;;;;19.55;10.82;;;10.10;90.70;;;;;;5006594;28;20105;-71
2021/10/31 07:49:38;;;;;;;19.00;11.07;;;10.20;90.50;;;;;;5005475;28;20033;-71
2021/10/31 07:52:04;;;;;;;20.75;10.80;;;10.20;90.40;;;;;;5005329;28;20034;-71
2021/10/31 07:54:30;;;;;;;20.17;11.45;;;10.30;90.20;;;;;;5005177;28;20053;-71
2021/10/31 07:57:00;;;;;;;19.17;11.27;;;10.30;90.50;;;;;;5006318;28;20380;-71
2021/10/31 07:59:26;;;;;;;21.10;11.45;;;10.40;90.00;;;;;;5006393;28;20089;-71
2021/10/31 08:01:52;;;;;;;19.20;12.15;;;10.50;89.50;;;;;;4994177;28;20029;-71
2021/10/31 08:04:18;;;;;;;20.90;11.93;;;10.50;88.80;;;;;;4986094;28;20054;-71
2021/10/31 08:06:44;;;;;;;19.27;11.73;;;10.60;89.10;;;;;;4990838;28;20221;-71
2021/10/31 08:09:10;;;;;;;21.50;12.45;;;10.60;89.70;;;;;;5023174;28;20026;-71
2021/10/31 08:11:36;;;;;;;18.98;11.70;;;10.60;89.10;;;;;;5017967;28;20030;-71
2021/10/31 08:14:02;;;;;;;22.73;12.30;;;10.70;87.90;;;;;;5005456;28;20042;-71
2021/10/31 08:16:28;;;;;;;18.15;10.45;;;10.80;87.50;;;;;;5005716;28;20025;-71
2021/10/31 08:18:53;;;;;;;21.60;11.93;;;10.90;86.80;;;;;;5005967;28;20202;-71
2021/10/31 08:21:19;;;;;;;20.52;12.15;;;10.90;87.10;;;;;;5004926;28;20368;-71
2021/10/31 08:23:48;;;;;;;18.73;11.15;;;11.00;86.30;;;;;;5005306;28;20018;-71
2021/10/31 08:26:14;;;;;;;19.63;11.63;;;11.10;86.30;;;;;;5005772;28;20077;-71
2021/10/31 08:28:40;;;;;;;20.70;12.10;;;11.20;85.40;;;;;;5005762;28;20031;-71
2021/10/31 08:31:07;;;;;;;24.15;12.93;;;11.20;85.30;;;;;;5005661;28;20337;-72
2021/10/31 08:33:34;;;;;;;20.67;12.18;;;11.30;86.10;;;;;;5005244;28;20054;-71
2021/10/31 08:36:01;;;;;;;19.13;11.70;;;11.30;85.30;;;;;;5004643;28;20019;-71
2021/10/31 08:38:28;;;;;;;20.38;12.63;;;11.40;84.90;;;;;;5004495;28;20284;-71
2021/10/31 08:40:54;;;;;;;20.65;12.35;;;11.50;84.40;;;;;;5005384;28;20056;-71
2021/10/31 08:43:20;;;;;;;20.10;11.48;;;11.50;84.50;;;;;;5004779;28;20030;-71
2021/10/31 08:45:46;;;;;;;25.02;12.88;;;11.60;84.10;;;;;;5005519;28;20026;-71
2021/10/31 08:48:13;;;;;;;20.73;12.77;;;11.70;84.60;;;;;;5005391;28;20211;-71
2021/10/31 08:50:39;;;;;;;18.60;11.43;;;11.80;83.40;;;;;;5004314;28;20025;-71
2021/10/31 08:53:06;;;;;;;21.10;12.45;;;11.90;83.90;;;;;;5003504;28;20030;-72
2021/10/31 08:55:32;;;;;;;22.05;12.27;;;11.90;84.30;;;;;;5004439;28;20449;-71
2021/10/31 08:57:58;;;;;;;22.57;13.10;;;12.00;85.30;;;;;;5005114;28;20025;-71
2021/10/31 09:00:25;;;;;;;20.05;11.77;;;12.10;82.50;;;;;;5005236;28;20022;-71
2021/10/31 09:02:52;;;;;;;17.40;11.30;;;12.30;82.10;;;;;;4987900;28;20049;-71
2021/10/31 09:05:18;;;;;;;;;;;12.40;81.30;;;;;;5005209;28;20018;-71
2021/10/31 09:07:44;;;;;;;19.67;10.57;;;12.50;80.90;;;;;;5019998;28;20216;-71
2021/10/31 09:10:10;;;;;;;20.40;11.30;;;12.60;80.30;;;;;;5004723;28;20027;-72
2021/10/31 09:12:35;;;;;;;22.87;11.77;;;12.70;81.60;;;;;;5004944;28;20022;-71
2021/10/31 09:15:01;;;;;;;20.27;11.93;;;12.70;80.70;;;;;;5004530;28;20523;-71
2021/10/31 09:17:27;;;;;;;21.00;11.00;;;12.80;80.80;;;;;;5004902;28;20018;-71
2021/10/31 09:19:53;;;;;;;18.40;11.53;;;13.00;79.30;;;;;;5004834;28;20464;-71
2021/10/31 09:22:19;;;;;;;17.17;10.20;;;13.10;78.20;;;;;;5003390;28;20023;-71
2021/10/31 09:24:45;;;;;;;19.37;10.70;;;13.30;78.20;;;;;;5004296;28;20492;-71
2021/10/31 09:27:10;;;;;;;16.47;9.97;;;13.50;77.30;;;;;;5004562;28;20022;-71
2021/10/31 09:29:36;;;;;;;19.00;10.40;;;13.60;76.40;;;;;;5004696;28;20022;-72
2021/10/31 09:32:02;;;;;;;14.83;10.10;;;13.80;76.60;;;;;;5004648;28;20022;-71
2021/10/31 09:34:29;;;;;;;17.80;10.13;;;14.00;75.70;;;;;;5004231;28;20029;-72
2021/10/31 09:36:56;;;;;;;15.80;9.65;;;14.10;76.30;;;;;;5004320;28;20033;-71
2021/10/31 09:39:23;;;;;;;15.93;9.25;;;14.30;74.40;;;;;;5004444;28;20058;-72
2021/10/31 09:41:50;;;;;;;;;;;14.50;73.40;;;;;;5004776;28;20085;-71
2021/10/31 09:44:49;;;;;;;14.15;9.30;;;14.60;73.90;;;;;;5004028;28;19905;-72
2021/10/31 09:47:08;;;;;;;14.52;8.70;;;14.90;72.10;;;;;;5002120;28;20042;-71
2021/10/31 09:49:36;;;;;;;14.27;8.77;;;15.00;72.10;;;;;;5004262;28;20029;-71
2021/10/31 09:52:01;;;;;;;13.95;7.90;;;15.20;68.60;;;;;;5002605;28;20527;-72
2021/10/31 09:54:27;;;;;;;13.10;8.53;;;15.30;69.90;;;;;;5002593;28;20042;-71
2021/10/31 09:56:53;;;;;;;12.33;7.83;;;15.50;69.60;;;;;;5003128;28;20026;-72
2021/10/31 09:59:25;;;;;;;12.47;8.10;;;15.70;70.10;;;;;;5004324;28;20037;-72
2021/10/31 10:04:31;;;;;;;10.23;6.50;;;16.10;66.10;;;;;;5002467;28;20018;-72
2021/10/31 10:07:00;;;;;;;12.93;7.47;;;16.30;64.30;;;;;;5003723;28;20034;-71
2021/10/31 10:09:26;;;;;;;10.77;7.30;;;16.50;63.40;;;;;;5003985;28;20022;-71
2021/10/31 10:11:52;;;;;;;10.38;7.13;;;16.60;63.00;;;;;;5004077;28;20198;-71
2021/10/31 10:14:23;;;;;;;11.83;6.97;;;16.90;65.00;;;;;;5003597;28;20076;-71
2021/10/31 10:16:54;;;;;;;12.60;7.45;;;17.00;62.90;;;;;;4987354;28;20022;-72
2021/10/31 10:19:32;;;;;;;13.05;7.35;;;17.10;61.80;;;;;;5003800;28;20026;-72
2021/10/31 10:22:07;;;;;;;16.65;8.07;;;17.50;59.70;;;;;;5001756;28;20073;-72
2021/10/31 10:24:58;;;;;;;10.73;6.80;;;17.60;62.40;;;;;;5003494;28;20022;-72
2021/10/31 10:27:27;;;;;;;10.30;6.88;;;18.30;58.10;;;;;;5003707;28;20026;-72
2021/10/31 10:29:54;;;;;;;8.55;6.05;;;19.20;55.40;;;;;;5003550;28;20018;-72
2021/10/31 10:32:23;;;;;;;11.73;6.28;;;20.20;52.60;;;;;;5003522;28;20022;-72
2021/10/31 10:34:57;;;;;;;8.93;5.97;;;20.80;52.60;;;;;;5003176;28;20022;-72
2021/10/31 10:37:39;;;;;;;7.88;5.63;;;21.40;48.80;;;;;;5002850;28;20042;-72
2021/10/31 10:40:09;;;;;;;11.13;5.47;;;22.50;47.60;;;;;;5003361;28;20022;-73
2021/10/31 10:42:58;;;;;;;8.75;5.10;;;23.30;43.90;;;;;;5003730;28;20028;-72
2021/10/31 10:45:30;;;;;;;7.05;4.85;;;24.00;43.50;;;;;;5002392;28;20030;-72
2021/10/31 10:48:15;;;;;;;6.43;5.30;;;24.40;43.50;;;;;;5003371;28;20076;-72
2021/10/31 10:50:42;;;;;;;7.47;4.90;;;24.50;43.00;;;;;;5003293;28;20026;-72
2021/10/31 10:53:19;;;;;;;6.68;4.55;;;24.30;42.00;;;;;;5002995;28;20256;-72
2021/10/31 10:55:45;;;;;;;5.18;4.18;;;25.10;39.50;;;;;;5003229;28;20022;-73
2021/10/31 10:58:14;;;;;;;5.20;3.70;;;26.00;38.70;;;;;;5002933;28;20348;-73
2021/10/31 11:00:43;;;;;;;5.20;4.32;;;26.10;37.10;;;;;;5003243;28;20030;-72
2021/10/31 11:03:15;;;;;;;6.63;4.03;;;26.30;35.90;;;;;;5002879;28;20033;-73
2021/10/31 11:05:47;;;;;;;4.55;4.00;;;26.40;35.20;;;;;;5003142;28;20029;-73
2021/10/31 11:08:18;;;;;;;5.72;4.05;;;25.40;36.50;;;;;;5001969;28;20034;-72
2021/10/31 11:10:55;;;;;;;4.38;3.45;;;24.90;37.60;;;;;;5003021;28;20022;-72
2021/10/31 11:13:28;;;;;;;6.13;3.90;;;23.20;40.80;;;;;;5002839;28;20025;-72
2021/10/31 11:15:55;;;;;;;6.45;4.00;;;22.50;42.10;;;;;;5003446;28;20030;-73
2021/10/31 11:18:21;;;;;;;7.60;5.28;;;21.90;43.40;;;;;;5007087;28;20022;-72
2021/10/31 11:20:47;;;;;;;9.98;6.65;;;21.80;43.80;;;;;;5007048;28;20026;-74
2021/10/31 11:23:21;;;;;;;5.95;4.57;;;21.60;45.20;;;;;;5005500;28;20085;-73
2021/10/31 11:25:47;;;;;;;5.53;3.60;;;21.20;45.80;;;;;;4990119;28;20022;-72
2021/10/31 11:28:15;;;;;;;4.47;3.25;;;20.90;44.90;;;;;;5006855;28;20360;-72
2021/10/31 11:30:43;;;;;;;5.80;3.42;;;20.70;46.90;;;;;;5006287;28;20181;-72
2021/10/31 11:33:10;;;;;;;4.68;3.33;;;20.50;45.90;;;;;;5006580;28;20085;-72
2021/10/31 11:35:36;;;;;;;5.55;3.55;;;20.20;46.80;;;;;;5006810;28;20018;-73
2021/10/31 11:38:09;;;;;;;5.00;3.58;;;20.10;47.40;;;;;;5006623;28;20053;-73
2021/10/31 11:40:42;;;;;;;5.70;3.45;;;19.90;48.00;;;;;;5006867;28;20034;-72
2021/10/31 11:43:16;;;;;;;5.07;3.30;;;20.10;47.70;;;;;;5005429;28;20216;-74
2021/10/31 11:45:44;;;;;;;5.47;3.30;;;20.50;46.50;;;;;;5006677;28;20077;-72
2021/10/31 11:48:18;;;;;;;8.85;6.13;;;20.50;47.00;;;;;;5006601;28;20242;-72
2021/10/31 11:51:06;;;;;;;4.70;3.40;;;20.40;47.30;;;;;;5006705;28;20129;-72
2021/10/31 11:53:55;;;;;;;7.75;5.10;;;20.20;47.80;;;;;;5005995;28;20018;-72
2021/10/31 11:56:24;;;;;;;14.30;8.75;;;20.00;48.30;;;;;;5005346;28;20100;-72
2021/10/31 11:58:59;;;;;;;6.47;5.05;;;20.30;48.30;;;;;;5005371;28;20073;-72
2021/10/31 12:01:51;;;;;;;5.10;3.55;;;20.40;47.60;;;;;;5006522;28;20030;-72
2021/10/31 12:05:14;;;;;;;3.67;3.10;;;20.50;48.70;;;;;;5005097;28;20022;-72
2021/10/31 12:07:44;;;;;;;5.18;2.88;;;22.00;68.10;;;;;;5005935;28;20033;-72
2021/10/31 12:10:36;;;;;;;5.40;3.30;;;21.90;68.30;;;;;;5006413;28;20022;-72
2021/10/31 12:13:14;;;;;;;5.13;4.03;;;22.90;66.40;;;;;;5005854;28;20057;-73
2021/10/31 12:16:04;;;;;;;5.03;3.22;;;23.70;65.40;;;;;;5006298;28;20029;-73
2021/10/31 12:18:46;;;;;;;3.22;2.90;;;23.80;43.50;;;;;;5005293;28;20026;-73
2021/10/31 12:21:34;;;;;;;5.65;4.45;;;24.20;43.20;;;;;;5006161;28;20018;-73
2021/10/31 12:24:13;;;;;;;5.70;3.47;;;25.20;46.20;;;;;;5003907;28;20048;-73
2021/10/31 12:26:52;;;;;;;4.28;3.38;;;25.30;40.30;;;;;;5004415;28;20025;-73
2021/10/31 12:29:29;;;;;;;18.13;12.77;;;25.90;38.00;;;;;;5005234;28;20225;-73
2021/10/31 12:32:14;;;;;;;6.18;4.80;;;26.20;38.60;;;;;;5005864;28;20037;-73
2021/10/31 12:34:45;;;;;;;5.35;4.00;;;27.90;35.50;;;;;;5004611;28;20026;-73
2021/10/31 12:37:23;;;;;;;5.25;3.88;;;27.90;34.90;;;;;;5005655;28;20022;-74
2021/10/31 12:40:05;;;;;;;5.30;3.90;;;28.10;34.30;;;;;;5005636;28;20075;-74
2021/10/31 12:42:35;;;;;;;7.97;6.53;;;28.50;33.90;;;;;;5005815;28;20085;-74
2021/10/31 12:45:04;;;;;;;5.45;4.88;;;31.60;30.40;;;;;;5005269;28;20042;-73
2021/10/31 12:47:44;;;;;;;4.45;4.05;;;32.80;28.70;;;;;;5004499;28;20018;-73
2021/10/31 12:50:19;;;;;;;4.55;4.13;;;30.70;30.30;;;;;;5004378;28;20033;-73
2021/10/31 12:52:47;;;;;;;4.22;3.53;;;30.10;56.50;;;;;;5005438;28;20018;-74
2021/10/31 12:55:18;;;;;;;3.97;3.58;;;29.40;38.60;;;;;;5028107;23;20279;-70
2021/10/31 12:58:09;;;;;;;3.60;3.30;;;30.00;30.70;;;;;;5040837;28;20036;-71